Grand Strand Airport
KCRE : now visible

Airfield :











YOU CAN JOIN US ON...

 
LOGIN :

Register | Disclaimer

   EN    FR    IT 

 









Legend :    VFR   Marginal VFR   IFR   Intensive IFR   Very Intensive IFR
Visi :
Ceiling :
>= 8 km
>= 3000ft
5 to 8 km
1000 to 3000 ft
1500m to 5 km
500 to 1000 ft
800 to 1500m
200 to 500 ft
< 800m
< 200 ft
Symbols :   Thunderstorms  Fog  Heavy snow  Heavy precipitations  Wind > 20 kt






- Airport Elevation : 32 ft


KCRE - Grand Strand

CURRENT METAR :
  • 220853Z AUTO 17004KT 10SM SCT009 27/24 A3011 RMK AO1 SLP197 T02670244 56015

EXPIRED METARs :
  • 220753Z AUTO 17004KT 10SM FEW009 27/24 A3012 RMK AO1 SLP201 T02670244
  • 220734Z AUTO 18005KT 10SM FEW008 27/24 A3013 RMK AO1 T02670244
  • 220653Z AUTO 18006KT 10SM FEW010 27/24 A3014 RMK AO1 SLP205 T02670244
  • 220631Z AUTO 17006KT 10SM SCT009 SCT017 27/24 A3014 RMK AO1 T02670244
  • 220618Z AUTO 16004KT 10SM BKN009 BKN019 27/24 A3015 RMK AO1 T02670244
  • 220607Z AUTO 17004KT 10SM SCT009 BKN021 27/24 A3015 RMK AO1 T02720244
  • 220553Z AUTO 17005KT 10SM FEW010 SCT022 27/24 A3016 RMK AO1 SLP213 T02670244 10278 20267 58002
  • 220543Z AUTO 17004KT 10SM FEW009 FEW018 27/24 A3016 RMK AO1 T02720244
  • 220453Z AUTO 15005KT 10SM FEW024 27/24 A3016 RMK AO1 SLP215 T02720244 403110206

TAF KCRE
Valid from the 22 at 06:00 until the 23 at 06:00 UTC


220617Z 2206/2306 16003KT P6SM BKN012
TEMPO 2209/2212 4SM BR SCT007
FM221300 16006KT P6SM VCSH BKN020
FM221800 17012KT P6SM SCT200
FM230400 19008KT P6SM SCT250
KZJX FIR / North America



MET'MAP, your aeronautical weather chart ! - Copyright ORBIFLY December 2007 - Disclaimer

ORBIFLY MET'MAP TEAM :

Programming & Development : Alexandra Zaïnal
Original concept : Baudouin d'Aumeries
Technical & hardware support : Manuel Goepfert
Assistance : Marc-Olivier Méhu




SOURCES & CREDITS :

   NOAA       Earth
Advisory